Time;durP1;ratioP1;P1;durP2;ratioP2;P2;SDS_P1;SDS_P2;PMS_P1;PMS_P2;Temp;Humidity;BMP_temperature;BMP_pressure;BME280_temperature;BME280_humidity;BME280_pressure;Samples;Min_cycle;Max_cycle;Signal;HPM_P1;HPM_P2
2023/01/30 00:01:05;;;;;;;20.73;9.52;;;6.80;99.90;;;;;;5059632;28;20132;-54
2023/01/30 00:03:31;;;;;;;18.13;7.95;;;6.60;99.90;;;;;;5059659;28;20069;-53
2023/01/30 00:05:57;;;;;;;19.63;8.15;;;6.10;99.90;;;;;;5059571;28;20041;-52
2023/01/30 00:08:23;;;;;;;19.73;7.72;;;6.50;99.90;;;;;;5059828;28;20044;-53
2023/01/30 00:10:48;;;;;;;20.45;7.57;;;6.10;99.90;;;;;;5059383;28;20105;-61
2023/01/30 00:13:14;;;;;;;19.35;6.93;;;6.20;99.90;;;;;;5059550;28;20052;-60
2023/01/30 00:15:41;;;;;;;19.02;7.53;;;6.60;99.90;;;;;;5059335;28;20049;-61
2023/01/30 00:18:06;;;;;;;19.33;8.10;;;6.10;99.90;;;;;;5059173;28;20041;-61
2023/01/30 00:20:33;;;;;;;16.27;7.32;;;6.90;99.90;;;;;;5041137;28;20045;-61
2023/01/30 00:22:58;;;;;;;17.42;7.63;;;6.70;99.90;;;;;;5059330;28;20086;-61
2023/01/30 00:25:25;;;;;;;16.15;6.90;;;6.90;99.90;;;;;;5059428;28;20076;-61
2023/01/30 00:27:51;;;;;;;16.30;7.60;;;6.30;99.90;;;;;;5058924;28;20098;-61
2023/01/30 00:30:17;;;;;;;19.17;6.95;;;6.50;99.90;;;;;;5059519;28;20029;-61
2023/01/30 00:32:42;;;;;;;18.50;7.32;;;6.80;99.90;;;;;;5058960;28;20100;-60
2023/01/30 00:35:08;;;;;;;18.23;7.88;;;6.10;99.90;;;;;;5058801;28;20037;-61
2023/01/30 00:37:34;;;;;;;22.33;7.15;;;6.10;99.90;;;;;;5024454;28;20056;-61
2023/01/30 00:39:59;;;;;;;20.00;7.35;;;6.00;99.90;;;;;;5040920;28;20037;-61
2023/01/30 00:47:55;;;;;;;16.05;6.88;;;6.00;99.90;;;;;;5058804;28;20131;-61
2023/01/30 00:50:21;;;;;;;18.08;7.45;;;5.70;99.90;;;;;;5058662;28;20448;-62
2023/01/30 00:52:46;;;;;;;20.20;7.55;;;5.90;99.90;;;;;;5059145;28;20075;-63
2023/01/30 00:55:12;;;;;;;20.20;8.10;;;5.70;99.90;;;;;;5078842;28;20052;-64
2023/01/30 00:57:38;;;;;;;21.73;8.70;;;5.70;99.90;;;;;;5078883;28;20051;-64
2023/01/30 01:00:04;;;;;;;25.73;8.88;;;5.60;99.90;;;;;;5079137;28;20036;-65
2023/01/30 01:02:30;;;;;;;30.15;9.15;;;6.20;99.90;;;;;;5078619;28;20045;-65
2023/01/30 01:04:56;;;;;;;21.77;9.45;;;5.60;99.90;;;;;;5078868;28;20068;-65
2023/01/30 01:07:21;;;;;;;21.42;8.93;;;6.60;99.90;;;;;;5078292;28;20052;-65
2023/01/30 01:09:47;;;;;;;24.83;8.73;;;5.80;99.90;;;;;;5078561;28;20041;-65
2023/01/30 01:12:13;;;;;;;20.42;9.02;;;7.00;99.90;;;;;;5078511;28;20040;-65
2023/01/30 01:14:38;;;;;;;21.33;7.85;;;5.50;99.90;;;;;;5078164;28;20040;-64
2023/01/30 01:17:04;;;;;;;20.30;8.57;;;6.90;99.90;;;;;;5078713;28;20049;-64
2023/01/30 01:19:30;;;;;;;17.92;7.60;;;5.80;99.90;;;;;;5078337;28;20068;-64
2023/01/30 01:21:55;;;;;;;21.05;8.65;;;5.50;99.90;;;;;;5078616;28;20040;-64
2023/01/30 01:24:21;;;;;;;19.30;8.15;;;7.10;99.90;;;;;;5078464;28;20041;-64
2023/01/30 01:26:47;;;;;;;22.92;8.57;;;6.90;99.90;;;;;;5078054;28;20097;-64
2023/01/30 01:29:14;;;;;;;17.75;7.40;;;5.60;99.90;;;;;;5078523;28;20112;-64
2023/01/30 01:31:41;;;;;;;22.73;8.45;;;6.30;99.90;;;;;;5078209;28;20037;-63
2023/01/30 01:34:07;;;;;;;18.10;8.00;;;5.50;99.90;;;;;;5078928;28;20054;-65
2023/01/30 01:36:32;;;;;;;16.73;7.78;;;5.90;99.90;;;;;;5078056;28;20072;-65
2023/01/30 01:38:58;;;;;;;21.95;8.00;;;6.30;99.90;;;;;;5078715;28;20036;-64
2023/01/30 01:41:23;;;;;;;20.10;8.35;;;5.60;99.90;;;;;;5060139;28;20036;-63
2023/01/30 01:44:07;;;;;;;23.17;9.98;;;5.70;99.90;;;;;;5078309;28;20035;-64
2023/01/30 01:46:45;;;;;;;22.65;8.77;;;7.10;99.90;;;;;;5078220;28;20562;-63
2023/01/30 01:49:27;;;;;;;21.65;8.15;;;5.60;99.90;;;;;;5077706;28;20051;-63
2023/01/30 01:52:08;;;;;;;24.75;8.80;;;7.30;99.90;;;;;;5078477;28;20076;-62
2023/01/30 01:54:39;;;;;;;22.08;9.25;;;5.70;99.90;;;;;;5062630;28;20051;-62
2023/01/30 01:57:12;;;;;;;21.95;8.68;;;5.60;99.90;;;;;;5058003;28;20043;-63
2023/01/30 01:59:46;;;;;;;30.40;10.48;;;5.70;99.90;;;;;;5058291;28;20100;-63
2023/01/30 02:02:14;;;;;;;25.77;9.13;;;7.40;99.90;;;;;;5058076;28;20730;-62
2023/01/30 02:05:03;;;;;;;26.88;9.38;;;5.70;99.90;;;;;;5040760;28;20544;-62
2023/01/30 02:07:32;;;;;;;26.75;10.05;;;7.10;99.90;;;;;;5057918;28;20124;-59
2023/01/30 02:09:58;;;;;;;35.92;10.57;;;7.40;99.90;;;;;;5057694;28;20143;-62
2023/01/30 02:12:24;;;;;;;25.17;9.32;;;7.40;99.90;;;;;;5058162;28;20037;-61
2023/01/30 02:14:52;;;;;;;25.60;8.63;;;7.40;99.90;;;;;;5057922;28;20041;-62
2023/01/30 02:17:19;;;;;;;35.92;8.23;;;6.20;99.90;;;;;;5058257;28;20049;-62
2023/01/30 02:20:15;;;;;;;32.28;8.80;;;6.60;99.90;;;;;;5057855;28;20037;-63
2023/01/30 02:23:30;;;;;;;24.80;7.75;;;7.10;99.90;;;;;;5057579;28;20454;-63
2023/01/30 02:26:25;;;;;;;31.92;7.97;;;6.10;99.90;;;;;;5058165;28;20057;-62
2023/01/30 02:29:12;;;;;;;25.80;8.57;;;6.00;99.90;;;;;;5061116;28;20049;-63
2023/01/30 02:31:57;;;;;;;25.10;7.32;;;6.00;99.90;;;;;;5061240;28;20048;-63
2023/01/30 02:34:48;;;;;;;26.48;8.27;;;7.50;99.90;;;;;;5011375;28;20099;-62
2023/01/30 02:37:13;;;;;;;24.63;6.90;;;6.20;99.90;;;;;;5061147;28;20071;-62
2023/01/30 02:40:04;;;;;;;25.95;7.63;;;6.70;99.90;;;;;;5061185;28;20044;-62
2023/01/30 02:42:56;;;;;;;32.78;7.88;;;6.70;99.90;;;;;;5061355;28;20111;-62
2023/01/30 02:45:53;;;;;;;25.10;6.70;;;6.20;99.90;;;;;;5000783;28;20537;-62
2023/01/30 02:48:27;;;;;;;27.30;7.95;;;6.10;99.90;;;;;;5080776;28;20100;-61
2023/01/30 02:50:59;;;;;;;25.10;5.93;;;6.10;99.90;;;;;;5081359;28;20036;-62
2023/01/30 02:53:29;;;;;;;23.50;6.90;;;7.30;99.90;;;;;;5086764;28;20039;-61
2023/01/30 02:55:55;;;;;;;30.63;6.85;;;6.10;99.90;;;;;;5101779;28;20377;-64
2023/01/30 02:58:25;;;;;;;24.38;5.15;;;6.10;99.90;;;;;;5100961;28;20526;-61
2023/01/30 03:01:12;;;;;;;22.65;5.35;;;7.00;99.90;;;;;;5101233;28;20150;-63
2023/01/30 03:03:50;;;;;;;20.95;5.35;;;6.60;99.90;;;;;;5101114;28;20055;-61
2023/01/30 03:06:23;;;;;;;21.52;4.85;;;6.40;99.90;;;;;;5100979;28;20059;-61
2023/01/30 03:09:01;;;;;;;23.70;5.28;;;6.10;99.90;;;;;;5099672;28;20078;-61
2023/01/30 03:11:59;;;;;;;20.70;4.70;;;6.70;99.90;;;;;;5100767;28;20127;-62
2023/01/30 03:14:32;;;;;;;19.92;4.85;;;6.20;99.90;;;;;;5082502;28;20044;-62
2023/01/30 03:17:00;;;;;;;24.35;4.30;;;6.70;99.90;;;;;;5101129;28;20040;-62
2023/01/30 03:19:28;;;;;;;24.38;4.57;;;7.00;99.90;;;;;;5100904;28;20040;-61
2023/01/30 03:21:54;;;;;;;17.40;4.30;;;6.50;99.90;;;;;;5082722;28;20052;-61
2023/01/30 03:24:20;;;;;;;21.05;4.60;;;6.30;99.90;;;;;;5100557;28;20044;-61
2023/01/30 03:27:04;;;;;;;21.70;4.13;;;6.30;99.90;;;;;;5100493;28;20055;-62
2023/01/30 03:29:30;;;;;;;19.88;3.78;;;6.80;99.90;;;;;;5100819;28;20067;-61
2023/01/30 03:31:55;;;;;;;20.38;4.60;;;6.40;99.90;;;;;;5100483;28;20051;-61
2023/01/30 03:34:21;;;;;;;21.15;4.10;;;6.50;99.90;;;;;;5100896;28;20032;-62
2023/01/30 03:36:48;;;;;;;22.65;4.90;;;6.60;99.90;;;;;;5100528;28;20080;-61
2023/01/30 03:39:13;;;;;;;20.95;4.18;;;6.50;99.90;;;;;;5100101;28;20461;-62
2023/01/30 03:41:39;;;;;;;22.77;4.82;;;6.10;99.90;;;;;;5100166;28;20100;-62
2023/01/30 03:44:05;;;;;;;17.45;3.97;;;6.20;99.90;;;;;;5100240;28;20131;-61
2023/01/30 03:46:31;;;;;;;22.10;3.72;;;6.50;99.90;;;;;;5100433;28;20096;-61
2023/01/30 03:48:57;;;;;;;19.85;3.75;;;6.00;99.90;;;;;;5099871;28;20099;-60
2023/01/30 03:51:22;;;;;;;18.60;4.25;;;6.20;99.90;;;;;;5100587;28;20048;-61
2023/01/30 03:53:48;;;;;;;19.77;3.70;;;6.10;99.90;;;;;;5072517;28;20978;-61
2023/01/30 03:56:14;;;;;;;24.83;4.30;;;6.00;99.90;;;;;;5079754;28;20047;-60
2023/01/30 03:58:39;;;;;;;23.42;4.47;;;6.20;99.90;;;;;;5079726;28;20044;-61
2023/01/30 04:01:05;;;;;;;18.48;4.05;;;6.20;99.90;;;;;;5079492;28;20072;-61
2023/01/30 04:03:32;;;;;;;17.10;3.78;;;6.00;99.90;;;;;;5079542;28;20104;-61
2023/01/30 04:05:57;;;;;;;17.10;3.20;;;6.20;99.90;;;;;;5079535;28;20056;-61
2023/01/30 04:08:23;;;;;;;24.98;4.00;;;6.20;99.90;;;;;;5080200;28;20044;-62
2023/01/30 04:10:49;;;;;;;24.55;5.07;;;6.10;99.90;;;;;;5079329;28;20049;-60
2023/01/30 04:13:14;;;;;;;24.23;4.88;;;6.20;99.90;;;;;;5079860;28;20056;-61
2023/01/30 04:15:40;;;;;;;19.42;3.75;;;6.10;99.90;;;;;;5079491;28;20069;-62
2023/01/30 04:18:06;;;;;;;22.55;3.92;;;6.00;99.90;;;;;;5078964;28;20465;-62
2023/01/30 04:20:31;;;;;;;26.60;5.57;;;6.00;99.90;;;;;;5079296;28;20037;-61
2023/01/30 04:22:57;;;;;;;24.85;3.90;;;5.80;99.90;;;;;;5079278;28;20051;-61
2023/01/30 04:25:23;;;;;;;24.02;3.47;;;5.90;99.90;;;;;;5079241;28;20411;-61
2023/01/30 04:27:48;;;;;;;21.35;3.55;;;5.70;99.90;;;;;;5079211;28;20494;-61
2023/01/30 04:30:14;;;;;;;19.88;4.43;;;5.90;99.90;;;;;;5079534;28;20111;-61
2023/01/30 04:32:40;;;;;;;25.20;4.15;;;5.90;99.90;;;;;;5061016;28;20051;-60
2023/01/30 04:35:06;;;;;;;17.48;3.22;;;5.80;99.90;;;;;;5061022;28;20052;-61
2023/01/30 04:37:32;;;;;;;24.15;4.30;;;5.80;99.90;;;;;;5079094;28;20530;-61
2023/01/30 04:39:57;;;;;;;24.75;4.63;;;5.70;99.90;;;;;;5078831;28;20036;-61
2023/01/30 04:42:23;;;;;;;19.48;4.22;;;5.60;99.90;;;;;;5079334;28;20049;-61
2023/01/30 04:44:48;;;;;;;22.42;4.30;;;5.90;99.90;;;;;;5078592;28;20048;-61
2023/01/30 04:47:15;;;;;;;21.88;3.95;;;5.50;99.90;;;;;;5079251;28;20055;-62
2023/01/30 04:49:40;;;;;;;25.17;4.03;;;5.60;99.90;;;;;;5078175;28;20119;-62
2023/01/30 04:52:06;;;;;;;23.67;4.00;;;5.80;99.90;;;;;;5079085;28;20090;-62
2023/01/30 04:54:31;;;;;;;21.13;3.83;;;5.80;99.90;;;;;;5093788;28;20044;-62
2023/01/30 04:56:57;;;;;;;23.35;5.68;;;5.70;99.90;;;;;;5098967;28;20053;-60
2023/01/30 04:59:23;;;;;;;25.05;3.38;;;5.50;99.90;;;;;;5099062;28;20047;-61
2023/01/30 05:01:49;;;;;;;25.85;5.28;;;5.40;99.90;;;;;;5098921;28;20054;-61
2023/01/30 05:04:14;;;;;;;17.60;4.35;;;5.60;99.90;;;;;;5099368;28;20042;-60
2023/01/30 05:06:40;;;;;;;28.13;3.97;;;5.40;99.90;;;;;;5099052;28;20405;-60
2023/01/30 05:09:06;;;;;;;27.45;3.85;;;5.50;99.90;;;;;;5098951;28;20893;-61
2023/01/30 05:11:32;;;;;;;16.63;4.03;;;5.60;99.90;;;;;;5098995;28;20040;-61
2023/01/30 05:13:58;;;;;;;18.70;3.50;;;5.40;99.90;;;;;;5098809;28;20043;-61
2023/01/30 05:16:24;;;;;;;23.17;3.65;;;5.60;99.90;;;;;;5098906;28;20131;-61
2023/01/30 05:18:50;;;;;;;23.50;3.42;;;5.60;99.90;;;;;;5098646;28;20037;-61
2023/01/30 05:21:21;;;;;;;23.15;4.95;;;5.60;99.90;;;;;;5099201;28;20048;-61
2023/01/30 05:23:47;;;;;;;21.92;3.20;;;5.50;99.90;;;;;;5098797;28;20066;-60
2023/01/30 05:26:14;;;;;;;23.20;3.35;;;5.30;99.90;;;;;;5098750;28;20052;-60
2023/01/30 05:28:40;;;;;;;21.75;4.15;;;5.50;99.90;;;;;;5098604;28;20652;-62
2023/01/30 05:31:09;;;;;;;22.17;4.38;;;5.50;99.90;;;;;;5098529;28;20077;-60
2023/01/30 05:33:35;;;;;;;23.55;4.43;;;5.40;99.90;;;;;;5095749;28;20065;-61
2023/01/30 05:36:01;;;;;;;26.13;3.47;;;5.50;99.90;;;;;;5078208;28;20411;-61
2023/01/30 05:38:27;;;;;;;22.98;3.42;;;5.50;99.90;;;;;;5079015;28;20055;-61
2023/01/30 05:41:04;;;;;;;21.30;4.20;;;5.50;99.90;;;;;;5078178;28;20044;-61
2023/01/30 05:43:31;;;;;;;20.48;4.88;;;5.40;99.90;;;;;;5078475;28;20052;-62
2023/01/30 05:45:58;;;;;;;26.42;3.22;;;5.40;99.90;;;;;;5078117;28;20043;-61
2023/01/30 05:48:25;;;;;;;23.15;4.75;;;5.30;99.90;;;;;;5077886;28;20040;-62
2023/01/30 05:50:51;;;;;;;27.52;3.88;;;5.50;99.90;;;;;;5078198;28;20277;-61
2023/01/30 05:53:18;;;;;;;21.17;3.95;;;5.30;99.90;;;;;;5082942;28;20032;-62
2023/01/30 05:55:44;;;;;;;20.58;4.53;;;5.30;99.90;;;;;;5099060;28;20036;-62
2023/01/30 05:58:10;;;;;;;22.15;3.67;;;5.50;99.90;;;;;;5080106;28;20047;-61
2023/01/30 06:00:36;;;;;;;23.33;3.47;;;5.60;99.90;;;;;;5098358;28;20044;-62
2023/01/30 06:03:01;;;;;;;26.27;4.25;;;5.60;99.90;;;;;;5102226;28;20047;-62
2023/01/30 06:05:27;;;;;;;24.50;3.58;;;5.50;99.90;;;;;;5102114;28;20134;-60
2023/01/30 06:07:53;;;;;;;24.48;4.63;;;5.50;99.90;;;;;;5084117;28;20052;-61
2023/01/30 06:10:18;;;;;;;23.63;4.07;;;5.70;99.90;;;;;;5102064;28;20476;-62
2023/01/30 06:12:44;;;;;;;29.95;3.72;;;5.80;99.90;;;;;;5102384;28;20495;-61
2023/01/30 06:15:10;;;;;;;18.50;3.70;;;5.70;99.90;;;;;;5101928;28;20069;-61
2023/01/30 06:17:36;;;;;;;23.80;3.92;;;5.70;99.90;;;;;;5079829;28;20107;-61
2023/01/30 06:20:02;;;;;;;24.38;3.65;;;5.80;99.90;;;;;;5098514;28;20539;-61
2023/01/30 06:22:28;;;;;;;21.38;3.58;;;5.90;99.90;;;;;;5098598;28;20052;-61
2023/01/30 06:24:53;;;;;;;30.38;3.53;;;5.90;99.90;;;;;;5098478;28;20054;-61
2023/01/30 06:27:19;;;;;;;21.88;4.25;;;5.90;99.90;;;;;;5098261;28;20158;-60
2023/01/30 06:29:45;;;;;;;27.27;3.70;;;5.80;99.90;;;;;;5098531;28;20048;-61
2023/01/30 06:32:10;;;;;;;28.52;4.10;;;5.90;99.90;;;;;;5098172;28;20103;-61
2023/01/30 06:34:36;;;;;;;25.88;3.80;;;5.90;99.90;;;;;;5098621;28;20048;-61
2023/01/30 06:37:02;;;;;;;24.42;4.50;;;5.90;99.90;;;;;;5098231;28;20052;-62
2023/01/30 06:39:27;;;;;;;19.77;3.55;;;5.80;99.90;;;;;;5098370;28;20077;-60
2023/01/30 06:41:53;;;;;;;26.05;4.07;;;5.90;99.90;;;;;;5096309;28;20040;-61
2023/01/30 06:44:18;;;;;;;21.38;4.18;;;5.90;99.90;;;;;;5098332;28;20056;-62
2023/01/30 06:46:44;;;;;;;25.67;4.57;;;5.80;99.90;;;;;;5098572;28;20183;-61
2023/01/30 06:49:10;;;;;;;24.88;4.25;;;5.80;99.90;;;;;;5084565;28;20052;-60
2023/01/30 06:51:36;;;;;;;27.55;4.63;;;5.90;99.90;;;;;;5093630;28;20086;-61
2023/01/30 06:54:01;;;;;;;24.80;4.15;;;5.80;99.90;;;;;;5086495;28;20860;-61
2023/01/30 06:56:27;;;;;;;28.30;3.75;;;6.00;99.90;;;;;;5077779;28;20049;-61
2023/01/30 06:58:53;;;;;;;18.52;3.38;;;5.80;99.90;;;;;;5077513;28;20048;-62
2023/01/30 07:01:20;;;;;;;17.80;2.85;;;5.90;99.90;;;;;;5077485;28;20056;-61
2023/01/30 07:03:46;;;;;;;16.02;3.25;;;6.00;99.90;;;;;;5075819;28;20059;-62
2023/01/30 07:06:12;;;;;;;20.40;3.20;;;6.00;99.90;;;;;;5077416;28;20055;-61
2023/01/30 07:08:37;;;;;;;11.70;2.80;;;5.80;99.90;;;;;;5078040;28;20127;-61
2023/01/30 07:11:06;;;;;;;14.02;2.50;;;6.00;99.90;;;;;;5077381;28;20076;-61
2023/01/30 07:13:32;;;;;;;17.80;3.97;;;5.90;99.90;;;;;;5076608;28;20788;-61
2023/01/30 07:15:57;;;;;;;17.17;3.38;;;5.90;99.90;;;;;;5076615;28;20071;-61
2023/01/30 07:18:23;;;;;;;15.55;3.28;;;6.00;99.90;;;;;;5076961;28;20048;-61
2023/01/30 07:20:49;;;;;;;16.55;3.13;;;5.90;99.90;;;;;;5077372;28;20094;-61
2023/01/30 07:23:15;;;;;;;17.50;3.78;;;5.90;99.90;;;;;;5077169;28;20090;-61
2023/01/30 07:25:40;;;;;;;19.35;3.33;;;5.90;99.90;;;;;;5077485;28;20427;-61
2023/01/30 07:28:06;;;;;;;14.38;3.38;;;6.00;99.90;;;;;;5076523;28;20052;-60
2023/01/30 07:30:34;;;;;;;21.25;4.57;;;6.00;99.90;;;;;;5077092;28;20049;-62
2023/01/30 07:33:01;;;;;;;17.55;5.57;;;6.00;99.90;;;;;;5058825;28;20055;-61
2023/01/30 07:35:30;;;;;;;19.90;3.60;;;5.90;99.90;;;;;;5076849;28;20522;-61
2023/01/30 07:37:56;;;;;;;21.50;3.50;;;5.90;99.90;;;;;;5075782;28;20427;-61
2023/01/30 07:40:22;;;;;;;20.95;3.65;;;5.90;99.90;;;;;;5076376;28;20048;-61
2023/01/30 07:43:03;;;;;;;13.15;2.85;;;5.90;99.90;;;;;;5077726;28;20569;-61
2023/01/30 07:45:35;;;;;;;20.88;3.25;;;6.00;99.90;;;;;;5076852;28;20439;-61
2023/01/30 07:48:01;;;;;;;16.42;3.33;;;6.10;99.90;;;;;;5058482;28;20071;-61
2023/01/30 07:50:27;;;;;;;21.85;3.50;;;5.90;99.90;;;;;;5076233;28;20486;-62
2023/01/30 07:52:52;;;;;;;19.73;3.17;;;6.00;99.90;;;;;;5060602;28;20133;-61
2023/01/30 07:55:18;;;;;;;22.20;3.35;;;6.10;99.90;;;;;;5086278;28;20097;-61
2023/01/30 07:57:44;;;;;;;13.32;2.20;;;6.10;99.90;;;;;;5086927;28;20044;-61
2023/01/30 08:00:11;;;;;;;15.45;3.67;;;6.00;99.90;;;;;;5088075;28;20036;-61
2023/01/30 08:02:36;;;;;;;11.43;2.47;;;5.90;99.90;;;;;;5084052;28;20554;-61
2023/01/30 08:05:02;;;;;;;16.60;2.88;;;6.00;99.90;;;;;;5096406;28;20108;-60
2023/01/30 08:07:28;;;;;;;14.57;3.17;;;6.00;99.90;;;;;;5096690;28;20062;-61
2023/01/30 08:09:54;;;;;;;15.57;2.80;;;6.00;99.90;;;;;;5096619;28;20039;-61
2023/01/30 08:12:19;;;;;;;13.13;3.75;;;6.10;99.90;;;;;;5096374;28;20044;-61
2023/01/30 08:14:45;;;;;;;14.80;3.25;;;6.20;99.90;;;;;;5096522;28;20713;-60
2023/01/30 08:17:10;;;;;;;14.65;3.25;;;6.20;99.90;;;;;;5096494;28;20667;-60
2023/01/30 08:19:36;;;;;;;15.63;2.90;;;6.10;99.90;;;;;;5096372;28;20100;-60
2023/01/30 08:22:02;;;;;;;21.67;4.28;;;6.30;99.90;;;;;;5096317;28;20067;-61
2023/01/30 08:24:27;;;;;;;16.83;3.38;;;6.10;99.90;;;;;;5095151;28;20841;-61
2023/01/30 08:26:53;;;;;;;20.13;3.40;;;6.10;99.90;;;;;;5095536;28;20063;-60
2023/01/30 08:29:19;;;;;;;14.77;2.95;;;6.10;99.90;;;;;;5096135;28;20537;-61
2023/01/30 08:31:45;;;;;;;14.00;2.78;;;6.20;99.90;;;;;;5096090;28;20047;-60
2023/01/30 08:34:10;;;;;;;22.40;4.45;;;6.20;99.90;;;;;;5096441;28;20044;-61
2023/01/30 08:36:36;;;;;;;20.27;3.45;;;6.30;99.90;;;;;;5095911;28;20036;-61
2023/01/30 08:39:02;;;;;;;17.52;3.88;;;6.40;99.90;;;;;;5094275;28;20041;-61
2023/01/30 08:41:27;;;;;;;9.82;2.30;;;6.30;99.90;;;;;;5084408;28;20044;-61
2023/01/30 08:43:53;;;;;;;20.48;3.20;;;6.30;99.90;;;;;;5085567;28;20514;-61
2023/01/30 08:46:22;;;;;;;17.45;3.53;;;6.20;99.90;;;;;;5086649;28;20075;-61
2023/01/30 08:48:48;;;;;;;17.58;3.45;;;6.30;99.90;;;;;;5084361;28;20037;-62
2023/01/30 08:51:14;;;;;;;13.30;2.65;;;6.20;99.90;;;;;;5084373;28;20055;-61
2023/01/30 08:53:40;;;;;;;17.13;2.70;;;6.30;99.90;;;;;;5085895;28;20668;-61
2023/01/30 08:56:05;;;;;;;18.05;3.65;;;6.40;99.90;;;;;;5068509;28;20054;-61
2023/01/30 08:58:31;;;;;;;17.30;3.40;;;6.50;99.90;;;;;;5082373;28;20121;-61
2023/01/30 09:00:57;;;;;;;19.48;3.90;;;6.40;99.90;;;;;;5067593;28;20503;-61
2023/01/30 09:03:22;;;;;;;17.50;3.00;;;6.50;99.90;;;;;;5084160;28;20037;-61
2023/01/30 09:05:54;;;;;;;17.40;3.42;;;6.50;99.90;;;;;;5085184;28;20071;-59
2023/01/30 09:08:20;;;;;;;11.63;3.47;;;6.30;99.90;;;;;;5086703;28;20052;-61
2023/01/30 09:10:46;;;;;;;19.90;5.20;;;6.30;99.90;;;;;;5083896;28;20052;-60
2023/01/30 09:13:11;;;;;;;14.18;3.15;;;6.40;99.90;;;;;;5084894;28;20044;-60
2023/01/30 09:15:41;;;;;;;18.52;4.15;;;6.40;99.90;;;;;;5085933;28;20079;-61
2023/01/30 09:18:06;;;;;;;20.75;3.50;;;6.50;99.90;;;;;;5084055;28;20430;-61
2023/01/30 09:20:32;;;;;;;17.88;3.83;;;6.40;99.90;;;;;;5085018;28;20032;-60
2023/01/30 09:22:58;;;;;;;20.75;3.42;;;6.50;99.90;;;;;;5085613;28;20037;-61
2023/01/30 09:25:24;;;;;;;14.07;2.72;;;6.40;99.90;;;;;;5084097;28;20535;-59
2023/01/30 09:27:50;;;;;;;19.75;4.00;;;6.40;99.90;;;;;;5084720;28;20100;-59
2023/01/30 09:30:16;;;;;;;16.67;3.95;;;6.10;99.90;;;;;;5085897;28;20044;-60
2023/01/30 09:32:42;;;;;;;21.40;3.35;;;6.30;99.90;;;;;;5075238;28;20052;-60
2023/01/30 09:35:08;;;;;;;18.90;4.28;;;6.60;99.90;;;;;;5074770;28;20071;-60
2023/01/30 09:37:34;;;;;;;14.85;2.85;;;6.30;99.90;;;;;;5078247;28;20036;-60
2023/01/30 09:40:00;;;;;;;16.33;3.30;;;6.20;99.90;;;;;;5078753;28;20054;-60
2023/01/30 09:42:37;;;;;;;15.43;3.05;;;6.30;99.90;;;;;;5079488;28;20123;-60
2023/01/30 09:45:29;;;;;;;23.70;2.95;;;6.40;99.90;;;;;;5078881;28;20040;-60
2023/01/30 09:48:01;;;;;;;17.77;2.90;;;6.50;99.90;;;;;;5074828;28;20091;-60
2023/01/30 09:50:45;;;;;;;17.58;3.85;;;6.40;99.90;;;;;;5078662;28;20075;-60
2023/01/30 09:53:30;;;;;;;20.67;4.10;;;6.50;99.90;;;;;;5064568;28;20040;-60
2023/01/30 09:55:58;;;;;;;19.67;3.28;;;6.60;99.90;;;;;;5086102;28;20040;-60
2023/01/30 09:58:29;;;;;;;14.60;3.45;;;6.60;99.90;;;;;;5088802;28;20081;-60
2023/01/30 10:01:05;;;;;;;19.10;3.63;;;6.50;99.90;;;;;;5086883;28;20154;-60
2023/01/30 10:03:38;;;;;;;14.43;2.90;;;6.70;99.90;;;;;;5087593;28;20084;-60
2023/01/30 10:06:15;;;;;;;15.73;2.85;;;6.70;99.90;;;;;;5087799;28;20438;-60
2023/01/30 10:08:54;;;;;;;16.88;3.58;;;6.70;99.90;;;;;;5088355;28;20045;-60
2023/01/30 10:11:39;;;;;;;22.05;3.47;;;6.90;99.90;;;;;;5087609;28;20533;-60
2023/01/30 10:14:20;;;;;;;19.75;3.30;;;6.80;99.90;;;;;;5091481;28;20051;-60
2023/01/30 10:16:45;;;;;;;26.42;3.40;;;7.00;99.90;;;;;;5089065;28;20094;-59
2023/01/30 10:19:20;;;;;;;12.93;3.22;;;6.90;99.90;;;;;;5088391;28;20041;-59
2023/01/30 10:22:15;;;;;;;11.55;2.58;;;6.30;99.90;;;;;;5091435;28;20043;-60
2023/01/30 10:25:18;;;;;;;9.25;1.80;;;6.20;99.90;;;;;;5091604;28;20837;-57
2023/01/30 10:27:49;;;;;;;;;;;5.90;99.90;;;;;;5063904;28;20127;-60
2023/01/30 10:30:16;;;;;;;6.50;1.10;;;5.10;99.90;;;;;;5071082;28;19927;-61
2023/01/30 10:32:55;;;;;;;5.05;1.70;;;5.10;99.90;;;;;;5069276;28;20052;-61
2023/01/30 10:35:25;;;;;;;2.97;0.68;;;5.10;99.90;;;;;;5067007;28;20044;-61
2023/01/30 10:38:11;;;;;;;1.38;0.55;;;5.10;99.90;;;;;;5069380;28;20044;-61
2023/01/30 10:40:53;;;;;;;4.50;0.93;;;4.70;99.90;;;;;;5070144;28;20044;-60
2023/01/30 10:43:31;;;;;;;9.90;3.15;;;4.80;99.90;;;;;;5048398;28;20071;-60
2023/01/30 10:46:09;;;;;;;14.45;1.95;;;5.00;99.90;;;;;;5062161;28;20056;-61
2023/01/30 10:48:57;;;;;;;13.02;2.20;;;5.70;99.90;;;;;;5057931;28;20037;-61
2023/01/30 10:52:04;;;;;;;9.98;1.80;;;5.50;99.90;;;;;;5070563;28;20048;-60
2023/01/30 10:54:33;;;;;;;11.75;2.05;;;6.00;99.90;;;;;;5050079;28;20053;-61
2023/01/30 10:57:17;;;;;;;10.48;1.63;;;6.00;99.90;;;;;;5070028;28;20045;-60
2023/01/30 10:59:55;;;;;;;22.10;3.70;;;5.80;99.90;;;;;;5062236;28;20044;-60
2023/01/30 11:02:48;;;;;;;17.52;4.07;;;5.90;99.90;;;;;;5060968;28;20060;-60
2023/01/30 11:05:18;;;;;;;21.63;3.03;;;6.00;99.90;;;;;;5059690;28;20048;-63
2023/01/30 11:07:45;;;;;;;22.13;4.88;;;6.40;99.90;;;;;;5062141;28;20036;-62
2023/01/30 11:10:31;;;;;;;17.75;3.15;;;6.50;99.90;;;;;;5057060;28;20064;-63
2023/01/30 11:13:08;;;;;;;25.42;3.70;;;6.50;99.90;;;;;;5060173;28;20044;-62
2023/01/30 11:15:40;;;;;;;17.77;2.60;;;6.70;99.90;;;;;;5062533;28;20045;-62
2023/01/30 11:18:07;;;;;;;16.90;3.63;;;6.80;99.90;;;;;;5080459;28;20095;-63
2023/01/30 11:20:39;;;;;;;20.70;3.17;;;6.90;99.90;;;;;;5080330;28;20044;-63
2023/01/30 11:23:08;;;;;;;22.73;2.85;;;6.80;99.90;;;;;;5080443;28;20083;-62
2023/01/30 11:25:53;;;;;;;17.85;2.53;;;6.70;99.90;;;;;;5080950;28;20071;-60
2023/01/30 11:28:19;;;;;;;14.35;2.78;;;6.80;99.90;;;;;;5080165;28;20052;-60
2023/01/30 11:30:53;;;;;;;20.13;4.00;;;6.70;99.90;;;;;;5080124;28;20110;-60
2023/01/30 11:33:21;;;;;;;13.95;2.50;;;6.90;99.90;;;;;;5062110;28;20523;-60
2023/01/30 11:35:50;;;;;;;18.42;4.05;;;6.80;99.90;;;;;;5080265;28;20100;-60
2023/01/30 11:38:22;;;;;;;20.50;3.53;;;6.90;99.90;;;;;;5080607;28;20055;-60
2023/01/30 11:40:48;;;;;;;21.25;2.83;;;7.00;99.90;;;;;;5079697;28;20043;-60
2023/01/30 11:43:14;;;;;;;10.52;2.30;;;7.10;99.90;;;;;;5080154;28;20037;-60
2023/01/30 11:45:47;;;;;;;13.18;2.28;;;6.90;99.90;;;;;;5079844;28;20043;-60
2023/01/30 11:48:18;;;;;;;10.48;1.88;;;6.70;99.90;;;;;;5079784;28;20071;-61
2023/01/30 11:50:47;;;;;;;17.95;2.55;;;6.70;99.90;;;;;;5080151;28;20040;-61
2023/01/30 11:53:31;;;;;;;15.40;2.88;;;6.70;99.90;;;;;;5079524;28;20098;-60
2023/01/30 11:56:02;;;;;;;17.23;2.63;;;6.80;99.90;;;;;;5079861;28;20040;-61
2023/01/30 11:58:34;;;;;;;14.13;2.28;;;6.80;99.90;;;;;;5079734;28;20088;-61
2023/01/30 12:01:00;;;;;;;12.82;1.85;;;6.70;99.90;;;;;;5079475;28;20063;-61
2023/01/30 12:03:28;;;;;;;21.30;4.50;;;6.80;99.90;;;;;;5079885;28;20606;-61
2023/01/30 12:05:57;;;;;;;15.07;3.30;;;6.70;99.90;;;;;;5079378;28;20040;-60
2023/01/30 12:08:26;;;;;;;19.27;3.22;;;6.60;99.90;;;;;;5080153;28;20052;-60
2023/01/30 12:10:56;;;;;;;17.10;3.85;;;6.80;99.90;;;;;;5079322;28;20426;-59
2023/01/30 12:13:33;;;;;;;18.13;3.50;;;6.80;99.90;;;;;;5079513;28;20415;-59
2023/01/30 12:16:20;;;;;;;22.25;2.78;;;7.10;99.90;;;;;;5061051;28;20216;-60
2023/01/30 12:18:54;;;;;;;25.02;3.88;;;6.90;99.90;;;;;;5079142;28;20082;-60
2023/01/30 12:21:31;;;;;;;17.08;3.60;;;6.90;99.90;;;;;;5079766;28;20036;-60
2023/01/30 12:24:34;;;;;;;16.95;3.20;;;6.90;99.90;;;;;;5079130;28;20487;-61
2023/01/30 12:27:00;;;;;;;27.08;4.07;;;6.90;99.90;;;;;;5045661;28;20089;-60
2023/01/30 12:29:34;;;;;;;20.90;3.50;;;6.90;99.90;;;;;;5059171;28;20547;-61
2023/01/30 12:32:12;;;;;;;19.98;4.25;;;7.10;99.90;;;;;;5058329;28;20049;-61
2023/01/30 12:34:39;;;;;;;19.35;3.88;;;7.20;99.90;;;;;;5059236;28;20049;-60
2023/01/30 12:37:14;;;;;;;21.65;3.55;;;7.00;99.90;;;;;;5058422;28;20040;-60
2023/01/30 12:39:55;;;;;;;21.52;3.85;;;7.00;99.90;;;;;;5058083;28;20065;-60
2023/01/30 12:42:49;;;;;;;24.45;4.20;;;7.10;99.90;;;;;;5058584;28;20049;-60
2023/01/30 12:45:21;;;;;;;22.13;4.88;;;7.10;99.90;;;;;;5052488;28;20056;-60
2023/01/30 12:47:56;;;;;;;19.83;3.58;;;7.10;99.90;;;;;;5057977;28;20098;-60
2023/01/30 12:50:42;;;;;;;19.85;3.28;;;7.10;99.90;;;;;;5058197;28;20476;-60
2023/01/30 12:53:26;;;;;;;19.38;3.47;;;7.10;99.90;;;;;;5057763;28;20149;-60
2023/01/30 12:56:19;;;;;;;23.58;3.95;;;7.00;99.90;;;;;;5079060;28;20055;-61
2023/01/30 12:58:58;;;;;;;18.52;3.20;;;7.00;99.90;;;;;;5078741;28;20139;-62
2023/01/30 13:01:48;;;;;;;24.42;3.63;;;7.00;99.90;;;;;;5078609;28;20082;-62
2023/01/30 13:04:48;;;;;;;21.75;3.15;;;7.00;99.90;;;;;;5064068;28;20049;-62
2023/01/30 13:07:36;;;;;;;20.92;3.55;;;7.10;99.90;;;;;;5047309;28;20053;-63
2023/01/30 13:10:29;;;;;;;21.15;4.05;;;7.10;99.90;;;;;;5046738;28;20061;-63